Time;durP1;ratioP1;P1;durP2;ratioP2;P2;SDS_P1;SDS_P2;PMS_P1;PMS_P2;Temp;Humidity;BMP_temperature;BMP_pressure;BME280_temperature;BME280_humidity;BME280_pressure;Samples;Min_cycle;Max_cycle;Signal;HPM_P1;HPM_P2
2024/01/01 00:00:12;;;;;;;8.50;6.63;;;;;;;5.37;95.80;96985.53;6227773;28;20203;-60
2024/01/01 00:03:14;;;;;;;7.80;5.67;;;;;;;5.39;95.86;96983.47;6232737;28;20590;-58
2024/01/01 00:06:16;;;;;;;8.47;5.50;;;;;;;5.52;95.02;96963.19;6237611;28;20208;-59
2024/01/01 00:09:18;;;;;;;5.73;5.10;;;;;;;5.26;97.03;96980.19;6249791;28;20755;-60
2024/01/01 00:12:20;;;;;;;5.83;4.90;;;;;;;5.16;97.89;96973.63;6249331;28;20204;-59
2024/01/01 00:15:22;;;;;;;6.07;4.57;;;;;;;5.10;98.45;97000.13;6254046;28;20192;-58
2024/01/01 00:18:25;;;;;;;4.97;4.23;;;;;;;5.16;96.98;97015.88;6255763;28;20275;-60
2024/01/01 00:21:28;;;;;;;5.63;4.30;;;;;;;5.18;97.25;96981.34;6248704;28;20274;-58
2024/01/01 00:24:30;;;;;;;4.60;3.80;;;;;;;4.89;99.60;96996.94;6256633;28;20190;-59
2024/01/01 00:27:34;;;;;;;4.60;3.77;;;;;;;4.43;100.00;96957.91;6249414;28;20191;-59
2024/01/01 00:30:36;;;;;;;4.07;3.30;;;;;;;4.55;100.00;96984.38;6231657;28;20614;-59
2024/01/01 00:33:38;;;;;;;3.50;2.97;;;;;;;4.55;100.00;97006.25;6252478;28;20207;-54
2024/01/01 00:36:41;;;;;;;4.23;3.07;;;;;;;4.31;100.00;97025.59;6251413;28;20557;-57
2024/01/01 00:39:43;;;;;;;4.50;2.53;;;;;;;4.08;100.00;97029.63;6254888;28;20702;-57
2024/01/01 00:42:47;;;;;;;3.43;2.33;;;;;;;3.94;100.00;97019.41;6245293;28;20291;-57
2024/01/01 00:45:49;;;;;;;2.67;1.90;;;;;;;4.08;100.00;97055.19;6236994;28;20873;-60
2024/01/01 00:48:51;;;;;;;2.60;2.17;;;;;;;3.99;100.00;97057.31;6226028;28;20574;-59
2024/01/01 00:51:54;;;;;;;1.47;1.33;;;;;;;4.05;100.00;97074.09;6255383;28;20252;-59
2024/01/01 00:54:56;;;;;;;1.87;1.40;;;;;;;3.96;100.00;97068.25;6230896;28;20205;-60
2024/01/01 00:57:58;;;;;;;2.13;1.60;;;;;;;3.70;100.00;97065.84;6247244;28;20203;-58
2024/01/01 01:01:02;;;;;;;1.83;1.23;;;;;;;3.58;100.00;97068.31;6249438;28;20267;-59
2024/01/01 01:04:04;;;;;;;1.80;1.27;;;;;;;3.42;100.00;97072.28;6229033;28;20251;-57
2024/01/01 01:07:06;;;;;;;0.70;0.70;;;;;;;3.37;100.00;97072.09;6232258;28;20996;-58
2024/01/01 01:10:09;;;;;;;1.20;1.10;;;;;;;3.29;100.00;97088.94;6245989;28;20223;-60
2024/01/01 01:13:11;;;;;;;0.67;0.60;;;;;;;3.15;100.00;97087.38;6247399;28;20212;-56
2024/01/01 01:16:13;;;;;;;0.70;0.70;;;;;;;3.08;100.00;97086.59;6208910;28;20199;-60
2024/01/01 01:19:15;;;;;;;0.53;0.53;;;;;;;3.08;100.00;97091.88;6239853;28;20849;-59
2024/01/01 01:22:18;;;;;;;0.97;0.70;;;;;;;2.97;100.00;97082.81;6249040;28;20238;-58
2024/01/01 01:25:20;;;;;;;0.70;0.70;;;;;;;2.88;100.00;97084.03;6216349;28;20205;-60
2024/01/01 01:28:23;;;;;;;0.60;0.60;;;;;;;2.80;100.00;97097.41;6246650;28;20202;-60
2024/01/01 01:31:26;;;;;;;0.60;0.60;;;;;;;2.74;100.00;97104.31;6237536;28;20230;-59
2024/01/01 01:34:28;;;;;;;0.53;0.50;;;;;;;2.92;100.00;97106.28;6247070;28;20209;-58
2024/01/01 01:37:30;;;;;;;0.87;0.60;;;;;;;2.69;100.00;97088.34;6231233;28;20220;-58
2024/01/01 01:40:34;;;;;;;0.50;0.50;;;;;;;2.71;100.00;97104.75;6234108;28;20599;-59
2024/01/01 01:43:36;;;;;;;0.90;0.40;;;;;;;2.64;100.00;97108.38;6238283;28;20690;-59
2024/01/01 01:46:39;;;;;;;0.60;0.50;;;;;;;2.59;100.00;97101.09;6232812;28;20284;-59
2024/01/01 01:49:41;;;;;;;0.93;0.50;;;;;;;2.48;100.00;97088.59;6231947;28;20207;-60
2024/01/01 01:52:45;;;;;;;0.70;0.63;;;;;;;2.47;100.00;97100.13;6234355;28;20777;-60
2024/01/01 01:55:47;;;;;;;0.53;0.50;;;;;;;2.39;100.00;97085.38;6238850;28;20694;-56
2024/01/01 01:58:49;;;;;;;0.50;0.50;;;;;;;2.42;100.00;97105.19;6218901;28;20203;-61
2024/01/01 02:01:51;;;;;;;0.60;0.50;;;;;;;2.64;100.00;97098.66;6229998;28;20212;-60
2024/01/01 02:04:54;;;;;;;0.50;0.43;;;;;;;2.59;100.00;97109.00;6240709;28;20738;-56
2024/01/01 02:07:56;;;;;;;0.60;0.60;;;;;;;2.52;100.00;97116.09;6226783;28;20914;-60
2024/01/01 02:10:58;;;;;;;0.40;0.40;;;;;;;2.41;100.00;97112.25;6238924;28;20854;-58
2024/01/01 02:14:09;;;;;;;0.80;0.60;;;;;;;2.32;100.00;97110.84;6231569;28;20757;-58
2024/01/01 02:17:11;;;;;;;1.13;0.70;;;;;;;2.41;100.00;97120.13;6253407;28;20193;-60
2024/01/01 02:20:14;;;;;;;0.40;0.40;;;;;;;2.29;100.00;97109.44;6236806;28;20692;-59
2024/01/01 02:23:20;;;;;;;0.57;0.40;;;;;;;2.37;100.00;97116.31;6250036;28;20225;-60
2024/01/01 02:26:23;;;;;;;0.30;0.27;;;;;;;2.21;100.00;97116.69;6251922;28;20693;-59
2024/01/01 02:29:25;;;;;;;0.40;0.40;;;;;;;2.10;100.00;97126.00;6237872;28;20213;-60
2024/01/01 02:32:27;;;;;;;0.47;0.47;;;;;;;1.89;100.00;97092.06;6259263;28;20567;-56
2024/01/01 02:35:29;;;;;;;1.10;0.40;;;;;;;1.93;100.00;97111.66;6241551;28;20200;-59
2024/01/01 02:38:31;;;;;;;0.53;0.53;;;;;;;2.09;100.00;97107.81;6235731;28;20204;-60
2024/01/01 02:41:34;;;;;;;0.80;0.50;;;;;;;1.94;100.00;97085.19;6248331;28;20222;-56
2024/01/01 02:44:36;;;;;;;0.40;0.40;;;;;;;1.97;100.00;97103.19;6248387;28;20192;-60
2024/01/01 02:47:39;;;;;;;0.60;0.47;;;;;;;1.95;100.00;97101.75;6236676;28;20204;-59
2024/01/01 02:50:41;;;;;;;1.13;0.50;;;;;;;1.94;100.00;97105.38;6224081;28;20187;-58
2024/01/01 02:53:44;;;;;;;0.77;0.50;;;;;;;1.89;100.00;97103.38;6253182;28;20193;-59
2024/01/01 02:56:47;;;;;;;1.20;0.60;;;;;;;1.91;100.00;97108.41;6244192;28;20191;-55
2024/01/01 02:59:49;;;;;;;0.73;0.60;;;;;;;2.02;100.00;97110.44;6240106;28;20209;-60
2024/01/01 03:02:51;;;;;;;1.03;0.70;;;;;;;2.08;100.00;97104.38;6246739;28;20216;-60
2024/01/01 03:05:54;;;;;;;1.90;0.83;;;;;;;2.06;100.00;97099.31;6243155;28;20200;-57
2024/01/01 03:08:56;;;;;;;0.63;0.63;;;;;;;2.26;100.00;97101.13;6228246;28;20236;-60
2024/01/01 03:11:58;;;;;;;1.60;0.80;;;;;;;2.10;100.00;97097.09;6237585;28;20195;-59
2024/01/01 03:15:02;;;;;;;0.70;0.60;;;;;;;2.03;100.00;97099.75;6248413;28;20199;-59
2024/01/01 03:18:05;;;;;;;0.80;0.77;;;;;;;2.03;100.00;97093.69;6222477;28;20204;-58
2024/01/01 03:21:08;;;;;;;1.30;0.67;;;;;;;2.04;100.00;97103.19;6242083;28;20348;-56
2024/01/01 03:24:10;;;;;;;0.83;0.80;;;;;;;2.04;100.00;97093.47;6240342;28;20200;-57
2024/01/01 03:27:12;;;;;;;0.67;0.67;;;;;;;2.10;100.00;97086.59;6235734;28;20203;-59
2024/01/01 03:30:14;;;;;;;3.53;1.00;;;;;;;2.09;100.00;97073.66;6224711;28;20214;-58
2024/01/01 03:33:17;;;;;;;1.47;0.90;;;;;;;2.10;100.00;97070.03;6231829;28;20198;-57
2024/01/01 03:36:19;;;;;;;1.07;0.93;;;;;;;2.16;100.00;97080.53;6246046;28;20692;-53
2024/01/01 03:39:21;;;;;;;1.17;0.80;;;;;;;2.25;100.00;97053.03;6237832;28;20204;-56
2024/01/01 03:42:23;;;;;;;0.70;0.63;;;;;;;2.28;100.00;97049.19;6217008;28;20225;-55
2024/01/01 03:45:25;;;;;;;1.10;0.83;;;;;;;2.29;100.00;97033.22;6242259;28;20197;-59
2024/01/01 03:48:27;;;;;;;0.97;0.70;;;;;;;2.27;100.00;97026.56;6234339;28;20198;-59
2024/01/01 03:51:29;;;;;;;0.73;0.53;;;;;;;2.28;100.00;97017.66;6232353;28;20204;-60
2024/01/01 03:54:32;;;;;;;1.33;0.77;;;;;;;2.28;100.00;97007.16;6227123;28;20200;-60
2024/01/01 03:57:34;;;;;;;0.60;0.50;;;;;;;2.32;100.00;96989.97;6247058;28;20320;-58
2024/01/01 04:00:36;;;;;;;0.50;0.50;;;;;;;2.36;100.00;96992.97;6231511;28;20230;-57
2024/01/01 04:03:39;;;;;;;0.70;0.60;;;;;;;2.37;100.00;97007.75;6241219;28;20237;-60
2024/01/01 04:06:41;;;;;;;0.70;0.60;;;;;;;2.48;100.00;96999.22;6226639;28;20664;-59
2024/01/01 04:09:43;;;;;;;1.80;1.03;;;;;;;2.79;100.00;97004.53;6231296;28;20231;-59
2024/01/01 04:12:46;;;;;;;1.07;0.70;;;;;;;2.67;100.00;97024.63;6240861;28;20195;-57
2024/01/01 04:15:48;;;;;;;0.50;0.50;;;;;;;2.65;100.00;97028.47;6233680;28;20214;-53
2024/01/01 04:18:50;;;;;;;0.50;0.47;;;;;;;2.63;100.00;97020.00;6235783;28;20194;-58
2024/01/01 04:21:52;;;;;;;0.90;0.60;;;;;;;2.55;100.00;97016.56;6231331;28;20219;-59
2024/01/01 04:24:55;;;;;;;0.40;0.40;;;;;;;2.53;100.00;97015.19;6246936;28;20200;-60
2024/01/01 04:27:57;;;;;;;2.33;0.57;;;;;;;2.46;100.00;97009.91;6238516;28;20202;-58
2024/01/01 04:30:59;;;;;;;0.63;0.57;;;;;;;2.51;100.00;97014.56;6247934;28;20211;-58
2024/01/01 04:34:01;;;;;;;1.70;0.83;;;;;;;2.55;100.00;97016.56;6254778;28;20656;-57
2024/01/01 04:37:04;;;;;;;1.03;0.80;;;;;;;2.52;100.00;97017.00;6247232;28;20306;-57
2024/01/01 04:40:07;;;;;;;0.80;0.70;;;;;;;2.53;100.00;97025.69;6250254;28;20750;-55
2024/01/01 04:43:09;;;;;;;1.20;1.03;;;;;;;2.58;100.00;97018.00;6250354;28;20898;-57
2024/01/01 04:46:11;;;;;;;1.37;0.90;;;;;;;2.58;100.00;97020.63;6253118;28;20266;-60
2024/01/01 04:49:13;;;;;;;1.10;0.93;;;;;;;2.62;100.00;97016.56;6256971;28;20235;-59
2024/01/01 04:52:15;;;;;;;0.87;0.77;;;;;;;2.62;100.00;96997.34;6245184;28;20224;-59
2024/01/01 04:55:18;;;;;;;1.40;1.03;;;;;;;2.71;100.00;96990.81;6255323;28;20578;-57
2024/01/01 04:58:20;;;;;;;0.80;0.60;;;;;;;2.77;100.00;96982.13;6246668;28;20425;-59
2024/01/01 05:01:22;;;;;;;1.17;0.60;;;;;;;2.79;100.00;96988.78;6255570;28;20207;-53
2024/01/01 05:04:24;;;;;;;1.27;0.80;;;;;;;2.90;100.00;97015.44;6230223;28;20208;-57
2024/01/01 05:07:27;;;;;;;1.23;0.90;;;;;;;2.88;100.00;97034.06;6237648;28;20194;-60
2024/01/01 05:10:29;;;;;;;3.27;1.00;;;;;;;2.93;100.00;97043.97;6252770;28;20193;-60
2024/01/01 05:13:31;;;;;;;2.23;0.83;;;;;;;3.06;100.00;97047.34;6241559;28;20199;-57
2024/01/01 05:16:34;;;;;;;0.90;0.80;;;;;;;3.14;100.00;97061.28;6246391;28;20211;-60
2024/01/01 05:19:37;;;;;;;1.70;0.73;;;;;;;3.06;100.00;97049.19;6238640;28;20200;-59
2024/01/01 05:22:40;;;;;;;0.93;0.60;;;;;;;3.03;100.00;97046.94;6254770;28;20211;-60
2024/01/01 05:25:43;;;;;;;0.83;0.50;;;;;;;3.27;100.00;97037.53;6251284;28;20967;-55
2024/01/01 05:28:45;;;;;;;0.67;0.67;;;;;;;3.24;100.00;97036.09;6243109;28;20204;-59
2024/01/01 05:31:47;;;;;;;0.40;0.40;;;;;;;3.15;100.00;97031.28;6242250;28;20405;-60
2024/01/01 05:34:49;;;;;;;1.17;0.60;;;;;;;3.31;100.00;97038.72;6236909;28;20579;-59
2024/01/01 05:37:51;;;;;;;0.60;0.40;;;;;;;3.28;100.00;97039.94;6251534;28;20202;-59
2024/01/01 05:40:53;;;;;;;0.70;0.40;;;;;;;3.42;100.00;97045.13;6239435;28;20246;-56
2024/01/01 05:43:56;;;;;;;0.77;0.50;;;;;;;3.45;100.00;97047.31;6244293;28;20673;-60
2024/01/01 05:54:02;;;;;;;0.87;0.60;;;;;;;3.49;100.00;97072.22;6210115;28;20241;-58
2024/01/01 05:57:09;;;;;;;0.43;0.43;;;;;;;3.38;100.00;97078.16;6201942;28;20205;-56
2024/01/01 06:00:18;;;;;;;0.50;0.43;;;;;;;3.35;100.00;97072.31;6208605;28;20190;-57
2024/01/01 06:03:24;;;;;;;0.77;0.63;;;;;;;3.46;100.00;97081.38;6208210;28;20700;-58
2024/01/01 06:06:31;;;;;;;0.93;0.57;;;;;;;3.38;100.00;97100.03;6210792;28;20773;-55
2024/01/01 06:09:38;;;;;;;0.97;0.70;;;;;;;3.31;100.00;97107.97;6205510;28;20251;-56
2024/01/01 06:12:43;;;;;;;1.13;0.80;;;;;;;3.31;100.00;97079.00;6202758;28;20200;-56
2024/01/01 06:15:51;;;;;;;1.70;0.87;;;;;;;3.38;100.00;97105.28;6211733;28;20208;-58
2024/01/01 06:18:59;;;;;;;1.20;0.80;;;;;;;3.40;100.00;97108.53;6206240;28;20734;-58
2024/01/01 06:22:04;;;;;;;2.63;1.10;;;;;;;3.39;100.00;97108.72;6206227;28;20213;-57
2024/01/01 06:25:09;;;;;;;2.53;1.30;;;;;;;3.31;100.00;97084.28;6202697;28;20193;-55
2024/01/01 06:28:11;;;;;;;1.70;1.10;;;;;;;3.42;100.00;97098.59;6209175;28;20281;-56
2024/01/01 06:31:13;;;;;;;2.13;0.90;;;;;;;3.77;100.00;97125.34;6209874;28;20331;-56
2024/01/01 06:34:16;;;;;;;3.23;1.20;;;;;;;3.72;100.00;97117.25;6201471;28;20201;-57
2024/01/01 06:37:18;;;;;;;1.57;1.27;;;;;;;3.71;100.00;97115.66;6205860;28;20216;-56
2024/01/01 06:40:20;;;;;;;2.33;1.40;;;;;;;3.68;100.00;97138.97;6213908;28;20679;-55
2024/01/01 06:43:24;;;;;;;1.73;1.20;;;;;;;3.76;100.00;97122.94;6205031;28;20581;-58
2024/01/01 06:46:26;;;;;;;1.53;1.30;;;;;;;3.73;100.00;97126.78;6205270;28;20304;-56
2024/01/01 06:49:29;;;;;;;2.53;1.43;;;;;;;3.63;100.00;97116.69;6206095;28;20276;-57
2024/01/01 06:52:33;;;;;;;2.03;1.30;;;;;;;3.80;100.00;97130.19;6211670;28;20733;-56
2024/01/01 06:55:35;;;;;;;2.03;1.57;;;;;;;3.74;100.00;97151.28;6211112;28;20204;-58
2024/01/01 06:58:37;;;;;;;3.53;1.60;;;;;;;4.10;100.00;97132.22;6207338;28;20653;-56
2024/01/01 07:01:41;;;;;;;3.83;2.10;;;;;;;3.98;100.00;97152.38;6214537;28;20194;-56
2024/01/01 07:04:44;;;;;;;2.40;1.47;;;;;;;3.82;100.00;97166.84;6205113;28;20204;-57
2024/01/01 07:07:46;;;;;;;3.83;1.93;;;;;;;3.78;100.00;97155.94;6200982;28;20700;-57
2024/01/01 07:10:49;;;;;;;3.00;1.77;;;;;;;4.11;100.00;97152.28;6210077;28;20208;-57
2024/01/01 07:13:51;;;;;;;4.37;1.57;;;;;;;4.16;100.00;97155.09;6204174;28;20435;-56
2024/01/01 07:16:54;;;;;;;1.90;1.50;;;;;;;3.96;100.00;97164.97;6206981;28;20201;-57
2024/01/01 07:19:56;;;;;;;2.40;1.80;;;;;;;3.85;100.00;97169.09;6203646;28;20209;-56
2024/01/01 07:22:59;;;;;;;3.70;2.10;;;;;;;3.77;100.00;97158.78;6202518;28;20209;-57
2024/01/01 07:26:01;;;;;;;4.57;2.23;;;;;;;3.75;100.00;97174.00;6206060;28;20748;-57
2024/01/01 07:29:05;;;;;;;2.63;2.10;;;;;;;3.81;100.00;97170.53;6204536;28;20197;-57
2024/01/01 07:32:08;;;;;;;2.80;2.20;;;;;;;3.99;100.00;97175.06;6205500;28;20243;-57
2024/01/01 07:35:11;;;;;;;4.27;2.50;;;;;;;3.99;100.00;97167.16;6201869;28;20578;-57
2024/01/01 07:38:14;;;;;;;3.63;2.33;;;;;;;3.93;100.00;97170.66;6201607;28;20206;-56
2024/01/01 07:41:16;;;;;;;3.10;2.43;;;;;;;3.90;100.00;97158.72;6206135;28;20198;-56
2024/01/01 07:44:20;;;;;;;4.50;2.97;;;;;;;3.87;100.00;97156.50;6203109;28;20743;-58
2024/01/01 07:47:23;;;;;;;5.60;3.83;;;;;;;3.99;100.00;97165.34;6205453;28;20189;-57
2024/01/01 07:50:25;;;;;;;5.17;3.40;;;;;;;4.13;100.00;97166.06;6220611;28;20283;-56
2024/01/01 07:53:28;;;;;;;6.47;3.87;;;;;;;4.21;100.00;97162.38;6206909;28;20238;-56
2024/01/01 07:56:30;;;;;;;5.33;3.70;;;;;;;4.09;100.00;97149.88;6198842;28;20193;-56
2024/01/01 07:59:33;;;;;;;6.97;4.47;;;;;;;4.20;100.00;97158.13;6203341;28;20209;-54
2024/01/01 08:02:36;;;;;;;8.23;4.77;;;;;;;4.14;100.00;97170.31;6198967;28;20208;-55
2024/01/01 08:05:38;;;;;;;7.03;4.87;;;;;;;4.12;100.00;97146.78;6199199;28;20205;-54
2024/01/01 08:08:41;;;;;;;7.37;4.40;;;;;;;4.27;100.00;97172.03;6204431;28;20251;-56
2024/01/01 08:11:43;;;;;;;8.20;5.23;;;;;;;4.11;100.00;97147.81;6201069;28;20646;-54
2024/01/01 08:14:45;;;;;;;8.30;5.10;;;;;;;4.23;100.00;97147.94;6202454;28;20193;-56
2024/01/01 08:17:47;;;;;;;7.80;5.70;;;;;;;4.42;100.00;97169.91;6199193;28;20202;-56
2024/01/01 08:20:50;;;;;;;8.53;4.63;;;;;;;4.55;100.00;97169.00;6200392;28;20596;-56
2024/01/01 08:23:53;;;;;;;9.03;5.13;;;;;;;4.50;100.00;97158.28;6203661;28;20888;-57
2024/01/01 08:26:56;;;;;;;7.30;4.93;;;;;;;4.43;100.00;97166.22;6195459;28;20209;-58
2024/01/01 08:29:58;;;;;;;8.63;4.80;;;;;;;4.17;100.00;97146.16;6196879;28;20231;-55
2024/01/01 08:33:01;;;;;;;7.10;4.57;;;;;;;4.60;100.00;97167.31;6197805;28;20280;-58
2024/01/01 08:36:04;;;;;;;8.73;4.73;;;;;;;4.46;100.00;97171.09;6208203;28;20201;-55
2024/01/01 08:39:09;;;;;;;6.40;4.20;;;;;;;4.37;100.00;97173.19;6200193;28;20209;-56
2024/01/01 08:42:11;;;;;;;6.10;4.20;;;;;;;4.48;100.00;97171.66;6202315;28;20198;-57
2024/01/01 08:45:16;;;;;;;9.23;4.10;;;;;;;4.38;100.00;97159.00;6209226;28;20208;-55
2024/01/01 08:48:18;;;;;;;7.30;4.00;;;;;;;4.69;100.00;97190.81;6204408;28;20247;-57
2024/01/01 08:51:20;;;;;;;6.30;4.07;;;;;;;4.63;100.00;97190.66;6211538;28;20704;-57
2024/01/01 08:54:23;;;;;;;5.30;4.07;;;;;;;4.54;100.00;97197.22;6202329;28;20200;-54
2024/01/01 08:57:26;;;;;;;5.23;3.40;;;;;;;4.73;100.00;97202.50;6214893;28;20775;-55
2024/01/01 09:00:28;;;;;;;4.30;3.27;;;;;;;4.84;100.00;97201.81;6206385;28;20332;-58
2024/01/01 09:03:30;;;;;;;6.80;3.47;;;;;;;4.86;100.00;97191.84;6212410;28;20699;-56
2024/01/01 09:06:33;;;;;;;6.10;3.13;;;;;;;4.88;100.00;97203.81;6206846;28;20851;-57
2024/01/01 09:09:37;;;;;;;5.37;3.07;;;;;;;5.11;100.00;97199.72;6200775;28;20290;-55
2024/01/01 09:12:39;;;;;;;3.23;2.80;;;;;;;5.60;97.87;97195.34;6211126;28;20778;-56
2024/01/01 09:15:41;;;;;;;5.07;2.93;;;;;;;5.53;97.92;97198.06;6203810;28;20635;-57
2024/01/01 09:18:43;;;;;;;5.97;3.40;;;;;;;5.40;100.00;97177.88;6208115;28;20201;-58
2024/01/01 09:21:46;;;;;;;4.47;3.17;;;;;;;5.51;100.00;97178.97;6188877;28;20362;-56
2024/01/01 09:24:48;;;;;;;5.73;3.10;;;;;;;5.69;100.00;97186.88;6203307;28;20353;-57
2024/01/01 09:27:52;;;;;;;4.87;3.13;;;;;;;6.00;95.30;97182.44;6205789;28;20198;-56
2024/01/01 09:30:55;;;;;;;4.97;2.80;;;;;;;6.10;95.06;97185.34;6200328;28;20203;-57
2024/01/01 09:34:00;;;;;;;4.73;3.23;;;;;;;6.21;91.65;97173.22;6207368;28;20211;-56
2024/01/01 09:37:03;;;;;;;5.93;2.83;;;;;;;6.31;90.61;97189.34;6199518;28;20258;-56
2024/01/01 09:40:06;;;;;;;4.27;2.50;;;;;;;6.27;91.90;97172.31;6202871;28;20202;-58
2024/01/01 09:43:17;;;;;;;6.13;2.90;;;;;;;6.29;89.14;97164.94;6204371;28;20214;-58
2024/01/01 09:46:20;;;;;;;2.70;2.50;;;;;;;6.49;90.01;97161.97;6199208;28;20585;-55
2024/01/01 09:49:24;;;;;;;3.63;2.13;;;;;;;6.63;87.90;97173.16;6206848;28;20222;-54
2024/01/01 09:52:26;;;;;;;4.60;2.70;;;;;;;7.01;84.14;97169.25;6203229;28;20721;-54
2024/01/01 09:55:30;;;;;;;4.33;2.80;;;;;;;6.90;88.71;97163.75;6205058;28;20695;-57
2024/01/01 09:58:41;;;;;;;5.90;2.77;;;;;;;7.00;88.34;97178.25;6197348;28;20205;-56
2024/01/01 10:02:01;;;;;;;3.90;2.60;;;;;;;6.97;88.01;97185.59;6205702;28;20200;-57
2024/01/01 10:05:12;;;;;;;3.63;2.30;;;;;;;7.05;87.23;97194.25;6200330;28;20239;-56
2024/01/01 10:08:15;;;;;;;3.00;2.50;;;;;;;7.06;83.71;97193.22;6201973;28;20338;-57
2024/01/01 10:11:20;;;;;;;3.63;2.30;;;;;;;7.06;84.38;97182.63;6202335;28;20201;-56
2024/01/01 10:14:23;;;;;;;3.43;2.47;;;;;;;7.10;85.79;97181.94;6200460;28;20395;-56
2024/01/01 10:17:26;;;;;;;4.20;2.43;;;;;;;7.21;85.12;97188.25;6204036;28;20298;-59
2024/01/01 10:20:28;;;;;;;3.77;2.47;;;;;;;7.15;84.27;97181.22;6199489;28;20255;-56
2024/01/01 10:23:30;;;;;;;4.43;2.60;;;;;;;7.10;84.45;97189.06;6201585;28;20223;-53
2024/01/01 10:26:39;;;;;;;3.30;2.07;;;;;;;7.11;87.03;97172.94;6201106;28;21039;-56
2024/01/01 10:29:46;;;;;;;3.00;1.90;;;;;;;7.15;83.11;97184.69;6201792;28;20307;-56
2024/01/01 10:32:50;;;;;;;2.87;1.97;;;;;;;7.20;83.48;97173.41;6200314;28;20205;-56
2024/01/01 10:35:53;;;;;;;2.77;1.57;;;;;;;7.12;80.11;97187.78;6197161;28;20283;-58
2024/01/01 10:38:56;;;;;;;2.40;1.67;;;;;;;6.98;82.63;97173.16;6201042;28;20201;-56
2024/01/01 10:41:59;;;;;;;3.40;1.77;;;;;;;7.13;79.53;97168.19;6199941;28;20203;-57
2024/01/01 10:45:04;;;;;;;2.00;1.50;;;;;;;6.93;82.55;97168.56;6197288;28;20220;-57
2024/01/01 10:48:07;;;;;;;3.43;1.80;;;;;;;7.06;81.29;97169.38;6195616;28;20232;-57
2024/01/01 10:51:13;;;;;;;2.00;1.63;;;;;;;7.02;83.48;97155.78;6202990;28;20343;-55
2024/01/01 10:54:33;;;;;;;3.00;1.47;;;;;;;6.94;83.57;97172.81;6187802;28;20197;-56
2024/01/01 10:57:53;;;;;;;3.10;1.60;;;;;;;7.01;81.61;97169.25;6207025;28;20610;-57
2024/01/01 11:01:11;;;;;;;4.03;1.90;;;;;;;7.09;78.62;97169.69;6205030;28;20762;-56
2024/01/01 11:04:15;;;;;;;2.57;1.70;;;;;;;6.96;81.12;97173.41;6206574;28;20853;-56
2024/01/01 11:07:52;;;;;;;2.03;1.50;;;;;;;6.91;81.26;97183.09;6204171;28;20231;-57
2024/01/01 11:10:55;;;;;;;3.03;1.80;;;;;;;7.01;83.67;97206.34;6205275;28;20673;-56
2024/01/01 11:13:59;;;;;;;3.87;1.87;;;;;;;7.10;77.28;97179.28;6203393;28;20192;-56
2024/01/01 11:17:09;;;;;;;2.80;1.97;;;;;;;6.96;82.56;97178.69;6202485;28;20196;-55
2024/01/01 11:20:50;;;;;;;4.23;1.60;;;;;;;7.05;77.79;97203.00;6210168;28;20217;-57
2024/01/01 11:23:52;;;;;;;4.70;1.70;;;;;;;7.08;79.60;97180.53;6201301;28;20201;-57
2024/01/01 11:27:35;;;;;;;2.00;1.30;;;;;;;6.95;77.23;97155.09;6205849;28;20211;-55
2024/01/01 11:30:39;;;;;;;2.73;1.70;;;;;;;7.11;78.13;97199.41;6203624;28;20201;-57
2024/01/01 11:33:42;;;;;;;3.80;1.90;;;;;;;7.17;79.58;97213.59;6189344;28;20194;-54
2024/01/01 11:36:44;;;;;;;2.80;1.70;;;;;;;7.14;79.14;97221.97;6204023;28;20221;-55
2024/01/01 11:39:57;;;;;;;2.77;1.70;;;;;;;7.01;78.91;97243.41;6185540;28;20206;-56
2024/01/01 11:43:06;;;;;;;4.00;1.80;;;;;;;7.17;80.01;97238.22;6188710;28;20657;-57
2024/01/01 11:46:09;;;;;;;5.20;1.67;;;;;;;7.02;80.59;97259.06;6209468;28;20214;-56
2024/01/01 11:49:12;;;;;;;2.97;1.70;;;;;;;7.03;79.12;97239.47;6202033;28;20687;-56
2024/01/01 11:52:17;;;;;;;3.83;1.40;;;;;;;7.08;80.59;97239.59;6206122;28;20243;-56
2024/01/01 11:55:25;;;;;;;5.00;1.63;;;;;;;7.24;78.62;97240.75;6203773;28;20202;-57
2024/01/01 11:58:27;;;;;;;3.17;1.50;;;;;;;7.31;80.40;97253.91;6203588;28;20202;-57
2024/01/01 12:01:30;;;;;;;2.57;1.20;;;;;;;7.27;76.10;97242.94;6208669;28;20203;-55
2024/01/01 12:04:33;;;;;;;2.07;1.20;;;;;;;7.22;75.69;97258.72;6203096;28;20217;-58
2024/01/01 12:07:36;;;;;;;2.73;1.20;;;;;;;7.09;74.86;97249.16;6199253;28;20756;-57
2024/01/01 12:10:38;;;;;;;3.07;1.40;;;;;;;6.98;76.30;97265.84;6206550;28;20220;-58
2024/01/01 12:13:40;;;;;;;3.17;1.80;;;;;;;7.08;77.41;97266.09;6203897;28;20198;-57
2024/01/01 12:16:42;;;;;;;2.77;1.67;;;;;;;6.85;78.87;97256.28;6206645;28;20693;-57
2024/01/01 12:19:45;;;;;;;2.60;1.57;;;;;;;6.60;83.04;97242.41;6208541;28;20885;-58
2024/01/01 12:22:48;;;;;;;2.90;2.03;;;;;;;6.62;80.34;97256.25;6206200;28;20209;-57
2024/01/01 12:26:04;;;;;;;2.93;2.10;;;;;;;6.60;81.02;97264.41;6209342;28;20212;-56
2024/01/01 12:29:20;;;;;;;2.77;2.03;;;;;;;6.60;79.95;97266.22;6207347;28;20196;-56
2024/01/01 12:32:24;;;;;;;3.90;2.00;;;;;;;6.53;82.01;97266.34;6202953;28;20206;-56
2024/01/01 12:35:26;;;;;;;2.53;1.80;;;;;;;6.54;81.40;97256.56;6200333;28;20204;-58
2024/01/01 12:38:29;;;;;;;2.77;1.93;;;;;;;6.53;81.80;97261.03;6204682;28;20568;-56
2024/01/01 12:41:31;;;;;;;2.87;2.17;;;;;;;6.59;81.69;97265.44;6212116;28;20288;-57
2024/01/01 12:44:35;;;;;;;3.27;2.33;;;;;;;6.59;80.68;97256.69;6207032;28;20681;-58
2024/01/01 12:47:39;;;;;;;6.00;2.70;;;;;;;6.51;82.42;97254.38;6212480;28;20682;-56
2024/01/01 12:50:41;;;;;;;3.57;2.47;;;;;;;6.42;83.85;97249.41;6196058;28;20755;-59
2024/01/01 12:53:46;;;;;;;3.10;2.03;;;;;;;6.26;82.88;97218.31;6205926;28;20232;-57
2024/01/01 12:56:48;;;;;;;4.63;2.13;;;;;;;6.48;83.94;97245.03;6209447;28;20532;-58
2024/01/01 12:59:50;;;;;;;3.17;2.07;;;;;;;6.40;83.07;97240.91;6203586;28;20604;-59
2024/01/01 13:02:52;;;;;;;2.70;1.90;;;;;;;6.44;81.67;97220.06;6202404;28;20187;-59
2024/01/01 13:05:54;;;;;;;4.90;2.40;;;;;;;6.43;82.14;97237.78;6211529;28;20219;-58
2024/01/01 13:08:57;;;;;;;4.57;2.50;;;;;;;6.25;85.73;97239.66;6202973;28;20195;-57
2024/01/01 13:11:59;;;;;;;3.60;1.97;;;;;;;6.25;83.11;97251.06;6208917;28;20203;-57
2024/01/01 13:15:01;;;;;;;3.93;2.20;;;;;;;6.49;80.42;97248.50;6210123;28;20207;-58
2024/01/01 13:18:05;;;;;;;3.50;1.83;;;;;;;6.54;78.96;97241.47;6203206;28;20203;-59
2024/01/01 13:21:07;;;;;;;5.07;2.30;;;;;;;6.44;81.44;97244.69;6206576;28;20200;-58
2024/01/01 13:24:09;;;;;;;3.20;2.20;;;;;;;6.28;83.50;97226.81;6204255;28;20218;-56
2024/01/01 13:27:19;;;;;;;4.13;2.27;;;;;;;6.47;80.84;97244.25;6204896;28;20200;-58
2024/01/01 13:30:21;;;;;;;5.13;2.00;;;;;;;6.40;82.17;97240.06;6207144;28;20196;-58
2024/01/01 13:33:24;;;;;;;4.33;2.10;;;;;;;6.30;84.39;97247.75;6207319;28;20683;-59
2024/01/01 13:36:26;;;;;;;4.20;2.37;;;;;;;6.09;85.21;97233.19;6206595;28;20192;-57
2024/01/01 13:39:28;;;;;;;5.20;2.20;;;;;;;6.22;83.06;97242.78;6206156;28;21111;-60
2024/01/01 13:42:30;;;;;;;6.00;2.17;;;;;;;6.07;86.08;97246.63;6210018;28;20217;-57
2024/01/01 13:45:33;;;;;;;3.80;2.00;;;;;;;6.25;81.78;97252.91;6202684;28;20219;-58
2024/01/01 13:48:35;;;;;;;5.53;2.20;;;;;;;6.09;83.11;97233.97;6205224;28;20657;-59
2024/01/01 13:51:37;;;;;;;5.13;2.30;;;;;;;6.11;82.67;97239.06;6206374;28;20719;-59
2024/01/01 13:54:39;;;;;;;4.93;1.80;;;;;;;5.99;85.61;97248.78;6199726;28;20232;-59
2024/01/01 13:57:43;;;;;;;2.50;2.00;;;;;;;5.74;88.19;97249.66;6204875;28;20211;-59
2024/01/01 14:00:47;;;;;;;5.20;1.73;;;;;;;5.54;91.19;97257.78;6205409;28;20651;-59
2024/01/01 14:03:50;;;;;;;4.23;2.00;;;;;;;5.45;89.95;97256.47;6206716;28;20282;-59
2024/01/01 14:06:52;;;;;;;6.90;2.20;;;;;;;5.76;87.10;97260.78;6207676;28;20580;-58
2024/01/01 14:09:54;;;;;;;4.67;1.80;;;;;;;5.62;88.54;97252.22;6203005;28;20909;-59
2024/01/01 14:12:56;;;;;;;4.73;1.60;;;;;;;5.72;86.04;97257.00;6204233;28;20623;-59
2024/01/01 14:15:58;;;;;;;5.20;2.07;;;;;;;5.65;87.88;97261.53;6201573;28;20225;-57
2024/01/01 14:19:00;;;;;;;3.77;1.50;;;;;;;5.59;87.63;97262.44;6203938;28;20192;-58
2024/01/01 14:22:03;;;;;;;3.10;1.63;;;;;;;5.52;88.10;97261.69;6198857;28;20208;-56
2024/01/01 14:25:07;;;;;;;4.70;2.50;;;;;;;5.37;89.03;97264.69;6205086;28;20295;-57
2024/01/01 14:28:09;;;;;;;5.17;1.67;;;;;;;5.27;89.61;97264.38;6202718;28;20202;-58
2024/01/01 14:31:14;;;;;;;4.57;1.90;;;;;;;5.10;90.75;97272.84;6201390;28;20280;-57
2024/01/01 14:34:16;;;;;;;2.57;1.20;;;;;;;4.94;92.20;97277.88;6210976;28;20655;-57